createdAt,value
2019-02-18T00:00:17.461Z,-1.41
2019-02-18T00:02:56.888Z,-1.42
2019-02-18T00:05:23.588Z,-1.44
2019-02-18T00:07:50.284Z,-1.46
2019-02-18T00:10:17.004Z,-1.47
2019-02-18T00:12:44.616Z,-1.49
2019-02-18T00:15:11.418Z,-1.49
2019-02-18T00:17:38.140Z,-1.52
2019-02-18T00:20:05.792Z,-1.57
2019-02-18T00:22:32.358Z,-1.60
2019-02-18T00:24:59.193Z,-1.64
2019-02-18T00:27:25.743Z,-1.66
2019-02-18T00:29:52.485Z,-1.68
2019-02-18T00:32:19.259Z,-1.71
2019-02-18T00:34:45.951Z,-1.72
2019-02-18T00:37:12.603Z,-1.73
2019-02-18T00:39:39.308Z,-1.75
2019-02-18T00:42:07.123Z,-1.76
2019-02-18T00:44:33.940Z,-1.79
2019-02-18T00:47:00.587Z,-1.79
2019-02-18T00:49:27.320Z,-1.82
2019-02-18T00:51:54.076Z,-1.84
2019-02-18T00:54:20.839Z,-1.84
2019-02-18T00:56:47.411Z,-1.85
2019-02-18T00:59:14.152Z,-1.84
2019-02-18T01:01:40.962Z,-1.87
2019-02-18T01:04:07.809Z,-1.86
2019-02-18T01:06:34.543Z,-1.88
2019-02-18T01:09:03.278Z,-1.89
2019-02-18T01:11:29.947Z,-1.91
2019-02-18T01:13:56.715Z,-1.91
2019-02-18T01:16:23.476Z,-1.87
2019-02-18T01:18:50.190Z,-1.90
2019-02-18T01:21:16.871Z,-1.93
2019-02-18T01:23:43.575Z,-1.94
2019-02-18T01:26:10.408Z,-1.98
2019-02-18T01:28:37.097Z,-2.02
2019-02-18T01:31:03.764Z,-2.06
2019-02-18T01:33:30.620Z,-2.08
2019-02-18T01:35:57.333Z,-2.10
2019-02-18T01:38:24.121Z,-2.10
2019-02-18T01:40:51.015Z,-2.12
2019-02-18T01:43:17.691Z,-2.13
2019-02-18T01:45:44.528Z,-2.15
2019-02-18T01:48:12.324Z,-2.18
2019-02-18T01:50:39.008Z,-2.19
2019-02-18T01:53:05.831Z,-2.23
2019-02-18T01:55:32.534Z,-2.25
2019-02-18T01:58:00.355Z,-2.26
2019-02-18T02:00:27.135Z,-2.25
2019-02-18T02:02:53.843Z,-2.25
2019-02-18T02:05:21.154Z,-2.27
2019-02-18T02:07:55.904Z,-2.27
2019-02-18T02:10:16.547Z,-2.28
2019-02-18T02:12:43.249Z,-2.31
2019-02-18T02:15:22.687Z,-2.32
2019-02-18T02:17:49.620Z,-2.35
2019-02-18T02:20:16.323Z,-2.37
2019-02-18T02:22:43.127Z,-2.40
2019-02-18T02:25:09.786Z,-2.38
2019-02-18T02:27:36.609Z,-2.41
2019-02-18T02:30:04.111Z,-2.42
2019-02-18T02:32:30.945Z,-2.44
2019-02-18T02:34:57.705Z,-2.45
2019-02-18T02:37:25.955Z,-2.48
2019-02-18T02:39:52.628Z,-2.50
2019-02-18T02:42:22.457Z,-2.49
2019-02-18T02:44:49.276Z,-2.52
2019-02-18T02:47:16.070Z,-2.54
2019-02-18T02:49:43.830Z,-2.58
2019-02-18T02:52:10.505Z,-2.59
2019-02-18T02:54:37.396Z,-2.58
2019-02-18T02:57:04.076Z,-2.59
2019-02-18T02:59:30.909Z,-2.62
2019-02-18T03:01:57.845Z,-2.62
2019-02-18T03:04:24.567Z,-2.65
2019-02-18T03:06:51.422Z,-2.67
2019-02-18T03:09:18.253Z,-2.68
2019-02-18T03:11:44.944Z,-2.70
2019-02-18T03:14:11.765Z,-2.74
2019-02-18T03:16:38.883Z,-2.73
2019-02-18T03:19:05.682Z,-2.73
2019-02-18T03:21:32.425Z,-2.79
2019-02-18T03:23:59.334Z,-2.81
2019-02-18T03:26:26.067Z,-2.84
2019-02-18T03:29:29.420Z,-2.85
2019-02-18T03:31:56.208Z,-2.86
2019-02-18T03:34:48.620Z,-2.90
2019-02-18T03:37:15.189Z,-2.89
2019-02-18T03:39:41.985Z,-2.92
2019-02-18T03:42:08.681Z,-2.96
2019-02-18T03:44:35.491Z,-2.98
2019-02-18T03:47:02.092Z,-3.00
2019-02-18T03:49:28.813Z,-3.03
2019-02-18T03:51:55.476Z,-3.05
2019-02-18T03:54:22.315Z,-3.09
2019-02-18T03:56:49.149Z,-3.08
2019-02-18T03:59:15.905Z,-3.10
2019-02-18T04:01:42.723Z,-3.12
2019-02-18T04:04:09.825Z,-3.14
2019-02-18T04:06:36.672Z,-3.16
2019-02-18T04:09:04.842Z,-3.18
2019-02-18T04:11:31.584Z,-3.18
2019-02-18T04:13:58.454Z,-3.20
2019-02-18T04:16:27.565Z,-3.22
2019-02-18T04:18:54.226Z,-3.25
2019-02-18T04:21:21.007Z,-3.26
2019-02-18T04:23:47.757Z,-3.27
2019-02-18T04:26:14.505Z,-3.28
2019-02-18T04:28:41.332Z,-3.27
2019-02-18T04:31:08.123Z,-3.29
2019-02-18T04:33:35.011Z,-3.30
2019-02-18T04:36:01.821Z,-3.32
2019-02-18T04:38:28.605Z,-3.32
2019-02-18T04:40:55.262Z,-3.33
2019-02-18T04:43:22.035Z,-3.34
2019-02-18T04:45:48.823Z,-3.35
2019-02-18T04:48:15.817Z,-3.35
2019-02-18T04:50:42.758Z,-3.37
2019-02-18T04:53:09.364Z,-3.41
2019-02-18T04:55:36.148Z,-3.43
2019-02-18T04:58:05.858Z,-3.47
2019-02-18T05:00:31.499Z,-3.48
2019-02-18T05:02:58.307Z,-3.51
2019-02-18T05:05:26.117Z,-3.53
2019-02-18T05:07:53.052Z,-3.48
2019-02-18T05:10:20.930Z,-3.44
2019-02-18T05:12:47.725Z,-3.48
2019-02-18T05:15:14.521Z,-3.46
2019-02-18T05:17:41.275Z,-3.46
2019-02-18T05:20:18.970Z,-3.48
2019-02-18T05:22:45.883Z,-3.49
2019-02-18T05:25:13.081Z,-3.50
2019-02-18T05:27:42.393Z,-3.53
2019-02-18T05:30:09.275Z,-3.56
2019-02-18T05:32:36.239Z,-3.56
2019-02-18T05:35:03.189Z,-3.58
2019-02-18T05:37:30.348Z,-3.60
2019-02-18T05:39:57.225Z,-3.63
2019-02-18T05:42:24.074Z,-3.62
2019-02-18T05:44:51.008Z,-3.64
2019-02-18T05:47:18.931Z,-3.58
2019-02-18T05:49:45.704Z,-3.63
2019-02-18T05:52:13.488Z,-3.64
2019-02-18T05:54:40.242Z,-3.65
2019-02-18T05:57:06.925Z,-3.61
2019-02-18T05:59:33.698Z,-3.65
2019-02-18T06:02:00.400Z,-3.63
2019-02-18T06:04:29.138Z,-3.65
2019-02-18T06:06:55.893Z,-3.67
2019-02-18T06:09:29.799Z,-3.68
2019-02-18T06:11:52.223Z,-3.69
2019-02-18T06:14:18.973Z,-3.70
2019-02-18T06:16:45.569Z,-3.71
2019-02-18T06:19:13.325Z,-3.71
2019-02-18T06:21:40.306Z,-3.67
2019-02-18T06:24:10.542Z,-3.67
2019-02-18T06:26:37.751Z,-3.67
2019-02-18T06:29:07.376Z,-3.60
2019-02-18T06:31:34.164Z,-3.57
2019-02-18T06:34:00.911Z,-3.59
2019-02-18T06:36:27.693Z,-3.57
2019-02-18T06:38:54.473Z,-3.53
2019-02-18T06:41:21.279Z,-3.53
2019-02-18T06:43:48.341Z,-3.52
2019-02-18T06:46:34.864Z,-3.48
2019-02-18T06:49:08.600Z,-3.45
2019-02-18T06:51:35.393Z,-3.37
2019-02-18T06:54:02.310Z,-3.28
2019-02-18T06:56:44.827Z,-3.17
2019-02-18T06:59:18.327Z,-3.10
2019-02-18T07:02:02.587Z,-2.98
2019-02-18T07:04:43.346Z,-2.84
2019-02-18T07:07:32.327Z,-2.68
2019-02-18T07:10:02.728Z,-2.50
2019-02-18T07:12:32.247Z,-2.32
2019-02-18T07:14:58.972Z,-2.15
2019-02-18T07:17:25.655Z,-2.01
2019-02-18T07:19:53.561Z,-1.92
2019-02-18T07:22:20.474Z,-1.77
2019-02-18T07:24:47.165Z,-1.62
2019-02-18T07:27:14.050Z,-1.53
2019-02-18T07:29:40.831Z,-1.42
2019-02-18T07:32:07.506Z,-1.26
2019-02-18T07:34:34.206Z,-1.10
2019-02-18T07:37:01.029Z,-0.97
2019-02-18T07:39:27.921Z,-0.81
2019-02-18T07:41:54.593Z,-0.66
2019-02-18T07:44:21.439Z,-0.53
2019-02-18T07:46:48.043Z,-0.41
2019-02-18T07:49:14.716Z,-0.28
2019-02-18T07:51:41.394Z,-0.16
2019-02-18T07:54:10.264Z,-0.01
2019-02-18T07:56:36.676Z,0.11
2019-02-18T07:59:03.425Z,0.19
2019-02-18T08:01:30.086Z,0.28
2019-02-18T08:03:56.804Z,0.44
2019-02-18T08:06:23.393Z,0.59
2019-02-18T08:08:50.209Z,0.72
2019-02-18T08:11:16.903Z,0.86
2019-02-18T08:13:43.680Z,0.97
2019-02-18T08:16:10.339Z,1.09
2019-02-18T08:18:37.020Z,1.20
2019-02-18T08:21:03.829Z,1.39
2019-02-18T08:23:30.466Z,1.49
2019-02-18T08:25:57.324Z,1.63
2019-02-18T08:28:27.561Z,1.73
2019-02-18T08:30:55.901Z,1.82
2019-02-18T08:33:23.271Z,1.92
2019-02-18T08:35:50.254Z,2.08
2019-02-18T08:38:17.604Z,2.15
2019-02-18T08:40:44.158Z,2.26
2019-02-18T08:43:10.759Z,2.37
2019-02-18T08:45:37.338Z,2.56
2019-02-18T08:48:04.052Z,2.71
2019-02-18T08:50:30.691Z,2.90
2019-02-18T08:52:57.377Z,3.21
2019-02-18T08:55:24.047Z,3.98
2019-02-18T08:57:50.706Z,5.09
2019-02-18T09:00:17.531Z,6.61
2019-02-18T09:02:44.191Z,8.53
2019-02-18T09:05:11.049Z,10.03
2019-02-18T09:07:37.736Z,10.81
2019-02-18T09:10:04.554Z,11.54
2019-02-18T09:12:31.308Z,11.00
2019-02-18T09:14:58.064Z,10.54
2019-02-18T09:17:24.904Z,10.19
2019-02-18T09:19:51.686Z,10.06
2019-02-18T09:22:47.111Z,9.75
2019-02-18T09:25:19.811Z,10.11
2019-02-18T09:27:46.582Z,11.56
2019-02-18T09:30:17.272Z,13.82
2019-02-18T09:32:44.007Z,16.45
2019-02-18T09:35:28.730Z,17.56
2019-02-18T09:37:55.440Z,18.23
2019-02-18T09:40:22.256Z,17.95
2019-02-18T09:42:48.957Z,17.49
2019-02-18T09:45:15.737Z,19.36
2019-02-18T09:47:42.719Z,19.21
2019-02-18T09:50:09.785Z,19.01
2019-02-18T09:52:36.509Z,18.51
2019-02-18T09:55:05.428Z,18.47
2019-02-18T09:57:32.273Z,17.86
2019-02-18T09:59:59.024Z,16.57
2019-02-18T10:02:25.751Z,15.56
2019-02-18T10:04:52.447Z,16.01
2019-02-18T10:07:19.333Z,17.20
2019-02-18T10:09:46.031Z,18.87
2019-02-18T10:12:18.423Z,19.04
2019-02-18T10:14:41.536Z,19.62
2019-02-18T10:17:09.337Z,20.41
2019-02-18T10:19:36.177Z,22.05
2019-02-18T10:22:10.627Z,21.86
2019-02-18T10:24:50.713Z,21.98
2019-02-18T10:27:12.196Z,23.05
2019-02-18T10:29:39.018Z,23.80
2019-02-18T10:32:05.701Z,25.54
2019-02-18T10:34:32.475Z,26.53
2019-02-18T10:36:59.223Z,23.88
2019-02-18T10:39:26.984Z,23.39
2019-02-18T10:41:53.846Z,21.68
2019-02-18T10:44:20.690Z,20.63
2019-02-18T10:46:47.395Z,20.41
2019-02-18T10:49:19.712Z,20.51
2019-02-18T10:51:42.908Z,21.82
2019-02-18T10:54:10.093Z,22.93
2019-02-18T10:56:36.889Z,23.65
2019-02-18T10:59:03.794Z,23.23
2019-02-18T11:01:31.589Z,22.67
2019-02-18T11:03:58.505Z,22.85
2019-02-18T11:06:25.464Z,24.74
2019-02-18T11:08:52.218Z,23.93
2019-02-18T11:11:20.109Z,23.79
2019-02-18T11:13:48.003Z,24.37
2019-02-18T11:16:14.773Z,24.75
2019-02-18T11:18:41.505Z,25.43
2019-02-18T11:21:08.877Z,26.31
2019-02-18T11:23:35.688Z,26.11
2019-02-18T11:26:02.612Z,24.59
2019-02-18T11:28:29.421Z,24.51
2019-02-18T11:30:56.045Z,25.96
2019-02-18T11:33:22.752Z,25.48
2019-02-18T11:35:49.662Z,25.18
2019-02-18T11:38:16.968Z,24.70
2019-02-18T11:40:44.082Z,24.83
2019-02-18T11:43:10.927Z,26.92
2019-02-18T11:45:37.936Z,26.92
2019-02-18T11:48:04.832Z,26.96
2019-02-18T11:50:31.903Z,28.48
2019-02-18T11:52:58.615Z,28.32
2019-02-18T11:55:25.679Z,26.22
2019-02-18T11:57:52.592Z,25.20
2019-02-18T12:00:21.426Z,24.63
2019-02-18T12:02:48.266Z,23.47
2019-02-18T12:05:15.055Z,23.47
2019-02-18T12:07:41.974Z,22.23
2019-02-18T12:10:08.840Z,22.29
2019-02-18T12:12:35.849Z,21.98
2019-02-18T12:15:02.747Z,19.99
2019-02-18T12:17:29.499Z,18.56
2019-02-18T12:19:56.104Z,17.04
2019-02-18T12:22:22.912Z,15.95
2019-02-18T12:24:49.706Z,15.48
2019-02-18T12:27:16.599Z,15.11
2019-02-18T12:29:43.320Z,15.19
2019-02-18T12:32:10.144Z,14.86
2019-02-18T12:34:37.066Z,14.80
2019-02-18T12:37:03.889Z,14.63
2019-02-18T12:39:30.734Z,14.64
2019-02-18T12:41:57.526Z,14.49
2019-02-18T12:44:24.345Z,14.62
2019-02-18T12:46:51.241Z,14.18
2019-02-18T12:49:21.258Z,13.78
2019-02-18T12:51:48.029Z,13.77
2019-02-18T12:54:21.008Z,13.54
2019-02-18T12:56:47.833Z,13.57
2019-02-18T12:59:14.523Z,13.60
2019-02-18T13:01:41.350Z,13.43
2019-02-18T13:04:08.046Z,13.33
2019-02-18T13:06:35.110Z,13.26
2019-02-18T13:09:03.744Z,13.31
2019-02-18T13:11:30.864Z,13.32
2019-02-18T13:13:57.688Z,13.47
2019-02-18T13:16:24.370Z,13.31
2019-02-18T13:18:51.102Z,13.40
2019-02-18T13:21:17.900Z,13.56
2019-02-18T13:23:44.979Z,13.61
2019-02-18T13:26:12.125Z,13.65
2019-02-18T13:28:38.895Z,13.59
2019-02-18T13:31:07.668Z,13.27
2019-02-18T13:33:34.663Z,13.58
2019-02-18T13:36:01.471Z,13.66
2019-02-18T13:38:28.045Z,13.79
2019-02-18T13:40:56.028Z,13.73
2019-02-18T13:43:26.067Z,13.71
2019-02-18T13:45:53.070Z,13.71
2019-02-18T13:48:20.398Z,13.56
2019-02-18T13:50:48.793Z,13.80
2019-02-18T13:53:15.516Z,13.47
2019-02-18T13:55:42.169Z,13.31
2019-02-18T13:58:08.885Z,13.46
2019-02-18T14:00:36.067Z,13.37
2019-02-18T14:03:02.750Z,13.31
2019-02-18T14:05:29.407Z,13.40
2019-02-18T14:07:56.573Z,13.45
2019-02-18T14:10:23.302Z,13.40
2019-02-18T14:12:50.023Z,13.29
2019-02-18T14:15:17.392Z,13.39
2019-02-18T14:17:44.177Z,13.40
2019-02-18T14:20:11.406Z,13.34
2019-02-18T14:22:38.317Z,13.52
2019-02-18T14:25:05.101Z,13.47
2019-02-18T14:27:32.102Z,13.45
2019-02-18T14:29:58.867Z,13.32
2019-02-18T14:32:25.518Z,13.37
2019-02-18T14:34:52.247Z,13.29
2019-02-18T14:37:19.144Z,13.34
2019-02-18T14:39:46.226Z,13.25
2019-02-18T14:42:13.045Z,13.24
2019-02-18T14:44:40.372Z,13.36
2019-02-18T14:47:07.282Z,13.37
2019-02-18T14:49:34.058Z,13.36
2019-02-18T14:52:01.006Z,13.41
2019-02-18T14:54:27.694Z,13.42
2019-02-18T14:56:54.371Z,13.45
2019-02-18T14:59:21.136Z,13.58
2019-02-18T15:01:47.810Z,13.64
2019-02-18T15:04:14.778Z,13.86
2019-02-18T15:06:41.336Z,13.85
2019-02-18T15:09:15.327Z,13.74
2019-02-18T15:11:42.220Z,13.69
2019-02-18T15:14:08.998Z,13.51
2019-02-18T15:16:35.731Z,13.22
2019-02-18T15:19:02.481Z,13.03
2019-02-18T15:21:30.728Z,12.95
2019-02-18T15:23:57.569Z,12.93
2019-02-18T15:26:24.574Z,13.05
2019-02-18T15:28:51.346Z,13.22
2019-02-18T15:31:19.282Z,13.41
2019-02-18T15:33:46.045Z,13.46
2019-02-18T15:36:12.891Z,13.63
2019-02-18T15:38:42.267Z,13.63
2019-02-18T15:41:09.064Z,13.69
2019-02-18T15:43:35.936Z,13.68
2019-02-18T15:46:02.796Z,13.63
2019-02-18T15:48:29.754Z,13.55
2019-02-18T15:50:57.550Z,13.52
2019-02-18T15:53:24.248Z,13.39
2019-02-18T15:55:51.612Z,13.21
2019-02-18T15:58:18.428Z,12.89
2019-02-18T16:00:45.130Z,12.69
2019-02-18T16:03:11.979Z,12.41
2019-02-18T16:05:38.652Z,12.31
2019-02-18T16:08:06.565Z,12.14
2019-02-18T16:10:33.344Z,11.93
2019-02-18T16:13:00.044Z,11.80
2019-02-18T16:15:27.118Z,11.65
2019-02-18T16:17:55.143Z,11.47
2019-02-18T16:20:21.961Z,11.31
2019-02-18T16:22:48.727Z,11.06
2019-02-18T16:25:17.241Z,10.89
2019-02-18T16:27:44.000Z,10.69
2019-02-18T16:30:12.035Z,10.52
2019-02-18T16:32:39.123Z,10.35
2019-02-18T16:35:06.124Z,10.22
2019-02-18T16:37:33.409Z,10.06
2019-02-18T16:40:00.004Z,9.90
2019-02-18T16:42:26.998Z,9.67
2019-02-18T16:44:56.581Z,9.57
2019-02-18T16:47:23.321Z,9.40
2019-02-18T16:49:50.261Z,9.21
2019-02-18T16:52:16.906Z,8.93
2019-02-18T16:54:43.842Z,8.69
2019-02-18T16:57:10.505Z,8.44
2019-02-18T16:59:37.220Z,8.34
2019-02-18T17:02:03.891Z,8.18
2019-02-18T17:04:30.661Z,8.02
2019-02-18T17:06:57.483Z,7.93
2019-02-18T17:09:24.294Z,7.87
2019-02-18T17:11:51.113Z,7.76
2019-02-18T17:14:17.799Z,7.71
2019-02-18T17:16:44.622Z,7.62
2019-02-18T17:19:11.260Z,7.57
2019-02-18T17:21:38.121Z,7.45
2019-02-18T17:24:04.961Z,7.38
2019-02-18T17:26:32.112Z,7.34
2019-02-18T17:28:59.087Z,7.23
2019-02-18T17:31:25.851Z,7.14
2019-02-18T17:33:52.653Z,7.08
2019-02-18T17:36:20.469Z,7.01
2019-02-18T17:38:47.080Z,6.93
2019-02-18T17:41:13.761Z,6.84
2019-02-18T17:43:40.582Z,6.73
2019-02-18T17:46:07.792Z,6.68
2019-02-18T17:48:34.614Z,6.63
2019-02-18T17:51:01.482Z,6.55
2019-02-18T17:53:28.197Z,6.46
2019-02-18T17:55:54.855Z,6.36
2019-02-18T17:58:21.660Z,6.32
2019-02-18T18:00:50.828Z,6.28
2019-02-18T18:03:17.559Z,6.18
2019-02-18T18:05:45.962Z,6.10
2019-02-18T18:08:12.757Z,6.00
2019-02-18T18:10:40.096Z,5.95
2019-02-18T18:13:07.610Z,5.91
2019-02-18T18:15:34.397Z,5.87
2019-02-18T18:18:01.323Z,5.78
2019-02-18T18:20:28.093Z,5.76
2019-02-18T18:22:55.441Z,5.65
2019-02-18T18:25:22.360Z,5.52
2019-02-18T18:27:49.827Z,5.50
2019-02-18T18:30:16.684Z,5.45
2019-02-18T18:32:45.167Z,5.32
2019-02-18T18:35:12.406Z,5.25
2019-02-18T18:37:42.280Z,5.17
2019-02-18T18:40:10.692Z,5.11
2019-02-18T18:42:37.601Z,5.06
2019-02-18T18:45:05.101Z,4.98
2019-02-18T18:47:31.949Z,4.88
2019-02-18T18:49:58.800Z,4.78
2019-02-18T18:52:25.610Z,4.68
2019-02-18T18:54:52.397Z,4.55
2019-02-18T18:57:20.770Z,4.44
2019-02-18T18:59:47.715Z,4.35
2019-02-18T19:02:14.457Z,4.29
2019-02-18T19:04:41.419Z,4.26
2019-02-18T19:07:08.256Z,4.25
2019-02-18T19:09:35.091Z,4.22
2019-02-18T19:12:02.148Z,4.20
2019-02-18T19:14:30.159Z,4.19
2019-02-18T19:16:57.477Z,4.12
2019-02-18T19:19:24.460Z,4.04
2019-02-18T19:21:51.226Z,4.01
2019-02-18T19:24:17.876Z,4.00
2019-02-18T19:26:44.501Z,3.95
2019-02-18T19:29:11.344Z,3.90
2019-02-18T19:31:38.650Z,3.89
2019-02-18T19:34:05.572Z,3.78
2019-02-18T19:36:32.395Z,3.71
2019-02-18T19:38:59.711Z,3.56
2019-02-18T19:41:26.723Z,3.49
2019-02-18T19:43:53.574Z,3.47
2019-02-18T19:46:20.422Z,3.39
2019-02-18T19:48:47.456Z,3.36
2019-02-18T19:51:15.682Z,3.31
2019-02-18T19:53:42.509Z,3.28
2019-02-18T19:56:09.390Z,3.23
2019-02-18T19:58:36.218Z,3.16
2019-02-18T20:01:03.054Z,3.11
2019-02-18T20:03:29.793Z,3.05
2019-02-18T20:05:56.675Z,3.00
2019-02-18T20:08:23.507Z,3.00
2019-02-18T20:10:50.320Z,2.96
2019-02-18T20:13:17.225Z,2.94
2019-02-18T20:15:45.971Z,2.95
2019-02-18T20:18:13.848Z,2.93
2019-02-18T20:20:40.563Z,2.86
2019-02-18T20:23:07.661Z,2.78
2019-02-18T20:25:34.453Z,2.71
2019-02-18T20:28:01.154Z,2.64
2019-02-18T20:30:30.592Z,2.54
2019-02-18T20:32:57.491Z,2.50
2019-02-18T20:35:24.316Z,2.44
2019-02-18T20:37:51.025Z,2.35
2019-02-18T20:40:19.049Z,2.27
2019-02-18T20:42:46.053Z,2.18
2019-02-18T20:45:12.928Z,2.14
2019-02-18T20:47:40.002Z,2.07
2019-02-18T20:50:08.157Z,2.02
2019-02-18T20:52:35.006Z,1.97
2019-02-18T20:55:02.079Z,1.92
2019-02-18T20:57:29.992Z,1.89
2019-02-18T20:59:56.950Z,1.88
2019-02-18T21:02:23.753Z,1.86
2019-02-18T21:04:50.590Z,1.80
2019-02-18T21:07:17.357Z,1.74
2019-02-18T21:09:45.456Z,1.73
2019-02-18T21:12:19.752Z,1.71
2019-02-18T21:14:44.389Z,1.69
2019-02-18T21:17:11.658Z,1.64
2019-02-18T21:19:38.513Z,1.61
2019-02-18T21:22:06.298Z,1.58
2019-02-18T21:24:33.142Z,1.56
2019-02-18T21:27:00.416Z,1.54
2019-02-18T21:29:27.330Z,1.50
2019-02-18T21:31:54.784Z,1.46
2019-02-18T21:34:21.598Z,1.46
2019-02-18T21:36:48.492Z,1.41
2019-02-18T21:39:15.345Z,1.41
2019-02-18T21:41:43.410Z,1.39
2019-02-18T21:44:10.304Z,1.34
2019-02-18T21:46:39.216Z,1.27
2019-02-18T21:49:06.165Z,1.26
2019-02-18T21:51:33.408Z,1.27
2019-02-18T21:54:00.441Z,1.28
2019-02-18T21:56:27.387Z,1.28
2019-02-18T21:58:54.632Z,1.25
2019-02-18T22:01:24.901Z,1.20
2019-02-18T22:03:52.947Z,1.15
2019-02-18T22:06:23.031Z,1.11
2019-02-18T22:08:49.939Z,1.10
2019-02-18T22:11:17.207Z,1.08
2019-02-18T22:13:44.158Z,0.99
2019-02-18T22:16:12.516Z,0.89
2019-02-18T22:18:39.437Z,0.88
2019-02-18T22:21:06.407Z,0.89
2019-02-18T22:23:34.255Z,0.89
2019-02-18T22:26:01.654Z,0.84
2019-02-18T22:28:28.367Z,0.82
2019-02-18T22:30:55.184Z,0.82
2019-02-18T22:33:22.140Z,0.78
2019-02-18T22:35:48.902Z,0.77
2019-02-18T22:38:15.597Z,0.74
2019-02-18T22:40:42.594Z,0.72
2019-02-18T22:43:09.272Z,0.70
2019-02-18T22:45:36.486Z,0.64
2019-02-18T22:48:03.318Z,0.63
2019-02-18T22:50:31.107Z,0.61
2019-02-18T22:52:58.079Z,0.53
2019-02-18T22:55:24.823Z,0.52
2019-02-18T22:57:51.504Z,0.51
2019-02-18T23:01:10.979Z,0.52
2019-02-18T23:03:37.841Z,0.48
2019-02-18T23:06:04.622Z,0.48
2019-02-18T23:08:31.364Z,0.42
2019-02-18T23:10:58.479Z,0.40
2019-02-18T23:13:25.180Z,0.42
2019-02-18T23:15:52.064Z,0.39
2019-02-18T23:18:18.759Z,0.40
2019-02-18T23:20:45.550Z,0.38
2019-02-18T23:23:12.304Z,0.35
2019-02-18T23:25:39.201Z,0.30
2019-02-18T23:28:06.038Z,0.27
2019-02-18T23:30:33.118Z,0.25
2019-02-18T23:32:59.672Z,0.24
2019-02-18T23:35:26.437Z,0.21
2019-02-18T23:37:53.247Z,0.20
2019-02-18T23:40:19.935Z,0.16
2019-02-18T23:42:46.683Z,0.15
2019-02-18T23:45:13.540Z,0.11
2019-02-18T23:47:40.219Z,0.09
2019-02-18T23:50:07.027Z,0.06
2019-02-18T23:52:33.793Z,0.07
2019-02-18T23:55:00.674Z,0.09
2019-02-18T23:57:27.940Z,0.08
2019-02-18T23:59:54.666Z,0.05
